createdAt,value
2022-08-25T00:02:20.198Z,19.96
2022-08-25T00:04:53.647Z,19.93
2022-08-25T00:07:24.475Z,19.90
2022-08-25T00:09:52.480Z,19.87
2022-08-25T00:12:21.083Z,19.87
2022-08-25T00:14:50.041Z,19.86
2022-08-25T00:17:17.982Z,19.84
2022-08-25T00:19:49.940Z,19.84
2022-08-25T00:22:19.643Z,19.83
2022-08-25T00:24:49.975Z,19.84
2022-08-25T00:27:19.059Z,19.82
2022-08-25T00:29:47.597Z,19.81
2022-08-25T00:32:15.699Z,19.81
2022-08-25T00:34:44.240Z,19.79
2022-08-25T00:37:24.958Z,19.77
2022-08-25T00:39:53.683Z,19.75
2022-08-25T00:42:21.652Z,19.75
2022-08-25T00:44:50.308Z,19.71
2022-08-25T00:47:18.631Z,19.68
2022-08-25T00:49:54.974Z,19.66
2022-08-25T00:52:30.246Z,19.64
2022-08-25T00:55:08.272Z,19.60
2022-08-25T00:57:45.177Z,19.57
2022-08-25T01:00:23.431Z,19.52
2022-08-25T01:02:51.708Z,19.44
2022-08-25T01:05:20.763Z,19.50
2022-08-25T01:07:50.433Z,19.46
2022-08-25T01:10:23.065Z,19.42
2022-08-25T01:12:54.916Z,19.42
2022-08-25T01:15:24.924Z,19.42
2022-08-25T01:17:55.857Z,19.45
2022-08-25T01:20:29.462Z,19.47
2022-08-25T01:22:59.701Z,19.47
2022-08-25T01:26:08.137Z,19.45
2022-08-25T01:28:39.302Z,19.45
2022-08-25T01:31:23.711Z,19.44
2022-08-25T01:33:53.550Z,19.44
2022-08-25T01:36:22.397Z,19.42
2022-08-25T01:38:50.839Z,19.39
2022-08-25T01:41:46.813Z,19.35
2022-08-25T01:44:18.537Z,19.32
2022-08-25T01:46:48.310Z,19.29
2022-08-25T01:49:16.422Z,19.26
2022-08-25T01:51:49.015Z,19.24
2022-08-25T01:54:17.578Z,19.20
2022-08-25T01:56:54.190Z,19.17
2022-08-25T01:59:24.214Z,19.17
2022-08-25T02:01:59.986Z,19.12
2022-08-25T02:04:32.541Z,19.10
2022-08-25T02:07:04.452Z,19.08
2022-08-25T02:09:34.092Z,19.08
2022-08-25T02:12:03.012Z,19.07
2022-08-25T02:14:36.820Z,19.04
2022-08-25T02:17:10.077Z,18.98
2022-08-25T02:19:38.804Z,18.94
2022-08-25T02:22:07.088Z,18.93
2022-08-25T02:24:37.878Z,18.93
2022-08-25T02:27:06.808Z,18.89
2022-08-25T02:29:38.909Z,18.89
2022-08-25T02:32:09.407Z,18.89
2022-08-25T02:34:41.656Z,18.88
2022-08-25T02:37:21.664Z,18.85
2022-08-25T02:39:50.486Z,18.85
2022-08-25T02:42:18.719Z,18.82
2022-08-25T02:44:48.489Z,18.83
2022-08-25T02:47:27.197Z,18.80
2022-08-25T02:49:55.932Z,18.81
2022-08-25T02:52:25.484Z,18.80
2022-08-25T02:54:53.406Z,18.77
2022-08-25T02:57:24.067Z,18.75
2022-08-25T02:59:52.114Z,18.72
2022-08-25T03:02:20.833Z,18.74
2022-08-25T03:04:49.720Z,18.71
2022-08-25T03:07:18.959Z,18.71
2022-08-25T03:09:54.110Z,18.71
2022-08-25T03:12:24.067Z,18.71
2022-08-25T03:14:55.869Z,18.68
2022-08-25T03:17:29.843Z,18.68
2022-08-25T03:19:58.732Z,18.66
2022-08-25T03:22:27.652Z,18.65
2022-08-25T03:25:22.162Z,18.64
2022-08-25T03:27:55.434Z,18.60
2022-08-25T03:30:27.294Z,18.60
2022-08-25T03:32:55.587Z,18.60
2022-08-25T03:35:23.917Z,18.58
2022-08-25T03:37:58.250Z,18.55
2022-08-25T03:40:27.595Z,18.51
2022-08-25T03:42:56.910Z,18.50
2022-08-25T03:45:33.281Z,18.48
2022-08-25T03:48:01.432Z,18.43
2022-08-25T03:50:30.315Z,18.40
2022-08-25T03:52:59.725Z,18.41
2022-08-25T03:55:28.715Z,18.43
2022-08-25T03:58:01.879Z,18.46
2022-08-25T04:00:31.389Z,18.52
2022-08-25T04:02:59.356Z,18.58
2022-08-25T04:05:28.706Z,18.62
2022-08-25T04:07:57.646Z,18.62
2022-08-25T04:10:25.508Z,18.61
2022-08-25T04:12:53.426Z,18.60
2022-08-25T04:15:21.959Z,18.61
2022-08-25T04:17:51.931Z,18.62
2022-08-25T04:20:22.887Z,18.61
2022-08-25T04:22:50.779Z,18.58
2022-08-25T04:25:21.071Z,18.61
2022-08-25T04:27:50.349Z,18.64
2022-08-25T04:30:19.322Z,18.67
2022-08-25T04:32:48.373Z,18.67
2022-08-25T04:35:38.084Z,18.69
2022-08-25T04:38:09.611Z,18.68
2022-08-25T04:40:40.939Z,18.76
2022-08-25T04:43:09.577Z,18.80
2022-08-25T04:45:40.010Z,18.81
2022-08-25T04:48:08.783Z,18.83
2022-08-25T04:50:39.887Z,18.88
2022-08-25T04:53:08.198Z,18.92
2022-08-25T04:55:48.102Z,18.93
2022-08-25T04:58:17.377Z,18.97
2022-08-25T05:00:51.552Z,19.02
2022-08-25T05:03:19.749Z,19.07
2022-08-25T05:05:48.235Z,19.11
2022-08-25T05:08:16.814Z,19.16
2022-08-25T05:10:44.715Z,19.23
2022-08-25T05:13:13.478Z,19.28
2022-08-25T05:15:51.069Z,19.32
2022-08-25T05:18:21.927Z,19.41
2022-08-25T05:20:51.616Z,19.47
2022-08-25T05:23:24.461Z,19.52
2022-08-25T05:25:53.858Z,19.60
2022-08-25T05:28:23.544Z,19.63
2022-08-25T05:30:51.544Z,19.65
2022-08-25T05:33:20.509Z,19.67
2022-08-25T05:35:49.061Z,19.70
2022-08-25T05:38:19.042Z,19.76
2022-08-25T05:40:52.604Z,19.83
2022-08-25T05:43:21.075Z,19.92
2022-08-25T05:45:49.318Z,20.03
2022-08-25T05:48:17.804Z,20.18
2022-08-25T05:50:55.086Z,20.26
2022-08-25T05:53:24.946Z,20.36
2022-08-25T05:55:54.467Z,20.47
2022-08-25T05:58:24.002Z,20.55
2022-08-25T06:00:52.336Z,20.55
2022-08-25T06:03:20.443Z,20.63
2022-08-25T06:05:49.049Z,20.72
2022-08-25T06:08:17.570Z,20.83
2022-08-25T06:10:45.580Z,20.96
2022-08-25T06:13:14.503Z,21.02
2022-08-25T06:15:42.775Z,21.09
2022-08-25T06:18:13.403Z,21.16
2022-08-25T06:20:41.464Z,21.18
2022-08-25T06:23:09.729Z,21.18
2022-08-25T06:25:37.784Z,21.21
2022-08-25T06:28:05.821Z,21.22
2022-08-25T06:30:34.487Z,21.29
2022-08-25T06:33:02.349Z,21.38
2022-08-25T06:35:30.198Z,21.49
2022-08-25T06:37:58.583Z,21.60
2022-08-25T06:40:27.948Z,21.66
2022-08-25T06:42:55.963Z,21.72
2022-08-25T06:45:25.155Z,21.74
2022-08-25T06:47:54.928Z,21.77
2022-08-25T06:50:22.689Z,21.81
2022-08-25T06:52:52.033Z,21.87
2022-08-25T06:55:20.133Z,21.96
2022-08-25T06:57:48.574Z,22.02
2022-08-25T07:00:17.938Z,22.08
2022-08-25T07:02:47.573Z,22.11
2022-08-25T07:05:33.416Z,22.24
2022-08-25T07:08:02.305Z,22.34
2022-08-25T07:10:30.264Z,22.43
2022-08-25T07:13:00.967Z,22.52
2022-08-25T07:15:30.173Z,22.65
2022-08-25T07:17:58.628Z,22.82
2022-08-25T07:20:26.650Z,23.02
2022-08-25T07:22:55.737Z,23.18
2022-08-25T07:25:25.455Z,23.28
2022-08-25T07:28:02.715Z,23.35
2022-08-25T07:30:31.859Z,23.41
2022-08-25T07:33:03.476Z,23.55
2022-08-25T07:35:36.524Z,23.74
2022-08-25T07:38:10.277Z,23.88
2022-08-25T07:40:43.779Z,24.00
2022-08-25T07:43:13.596Z,24.11
2022-08-25T07:45:49.184Z,24.21
2022-08-25T07:48:20.239Z,24.31
2022-08-25T07:50:50.542Z,24.39
2022-08-25T07:53:19.185Z,24.45
2022-08-25T07:55:47.893Z,24.49
2022-08-25T07:58:18.892Z,24.55
2022-08-25T08:04:30.640Z,24.62
2022-08-25T08:07:02.869Z,24.76
2022-08-25T08:09:33.959Z,24.95
2022-08-25T08:12:02.086Z,25.21
2022-08-25T08:14:30.557Z,25.47
2022-08-25T08:17:21.019Z,25.71
2022-08-25T08:19:51.156Z,25.88
2022-08-25T08:22:19.714Z,26.02
2022-08-25T08:24:54.726Z,26.18
2022-08-25T08:27:25.178Z,26.28
2022-08-25T08:29:55.232Z,26.30
2022-08-25T08:32:32.522Z,26.29
2022-08-25T08:35:19.469Z,26.30
2022-08-25T08:37:48.107Z,26.36
2022-08-25T08:40:21.279Z,26.42
2022-08-25T08:43:04.366Z,26.52
2022-08-25T08:45:50.348Z,26.52
2022-08-25T08:48:44.516Z,26.47
2022-08-25T08:51:39.360Z,26.34
2022-08-25T08:54:15.413Z,26.26
2022-08-25T08:57:03.112Z,26.18
2022-08-25T08:59:41.975Z,26.11
2022-08-25T09:02:39.449Z,26.07
2022-08-25T09:05:19.311Z,26.06
2022-08-25T09:08:07.585Z,26.01
2022-08-25T09:11:03.566Z,25.96
2022-08-25T09:14:05.376Z,25.94
2022-08-25T09:17:14.388Z,25.96
2022-08-25T09:19:48.306Z,26.03
2022-08-25T09:22:49.201Z,26.11
2022-08-25T09:25:53.518Z,26.08
2022-08-25T09:28:40.025Z,26.04
2022-08-25T09:31:19.893Z,26.07
2022-08-25T09:33:48.058Z,26.09
2022-08-25T09:36:16.514Z,26.07
2022-08-25T09:38:47.998Z,26.03
2022-08-25T09:41:36.162Z,26.01
2022-08-25T09:44:21.137Z,26.03
2022-08-25T09:47:14.751Z,26.09
2022-08-25T09:49:44.068Z,26.17
2022-08-25T09:52:28.366Z,26.19
2022-08-25T09:54:59.541Z,26.17
2022-08-25T09:57:41.618Z,26.24
2022-08-25T10:00:33.810Z,26.40
2022-08-25T10:03:13.923Z,26.50
2022-08-25T10:05:56.147Z,26.53
2022-08-25T10:08:36.466Z,26.56
2022-08-25T10:11:09.045Z,26.62
2022-08-25T10:13:42.077Z,26.70
2022-08-25T10:16:25.284Z,26.83
2022-08-25T10:19:08.376Z,27.02
2022-08-25T10:21:42.181Z,27.16
2022-08-25T10:24:16.329Z,27.26
2022-08-25T10:26:53.060Z,27.38
2022-08-25T10:29:58.062Z,27.52
2022-08-25T10:32:50.462Z,27.75
2022-08-25T10:35:29.208Z,27.89
2022-08-25T10:38:03.730Z,28.05
2022-08-25T10:41:01.279Z,28.24
2022-08-25T10:43:49.977Z,28.40
2022-08-25T10:46:25.633Z,28.48
2022-08-25T10:49:02.708Z,28.59
2022-08-25T10:51:55.699Z,28.60
2022-08-25T10:54:49.819Z,28.60
2022-08-25T10:57:30.560Z,28.66
2022-08-25T11:00:18.604Z,28.74
2022-08-25T11:03:05.050Z,28.80
2022-08-25T11:05:57.642Z,28.83
2022-08-25T11:08:36.678Z,28.86
2022-08-25T11:11:28.650Z,28.90
2022-08-25T11:14:10.979Z,28.93
2022-08-25T11:16:48.750Z,28.95
2022-08-25T11:19:27.100Z,28.96
2022-08-25T11:22:12.007Z,28.96
2022-08-25T11:25:10.389Z,28.97
2022-08-25T11:27:46.383Z,29.00
2022-08-25T11:30:17.495Z,29.01
2022-08-25T11:32:53.980Z,29.05
2022-08-25T11:35:53.764Z,29.07
2022-08-25T11:38:47.915Z,29.03
2022-08-25T11:41:53.445Z,29.03
2022-08-25T11:44:39.970Z,29.16
2022-08-25T11:47:46.252Z,29.33
2022-08-25T11:50:32.878Z,29.64
2022-08-25T11:53:17.338Z,29.96
2022-08-25T11:55:45.627Z,30.25
2022-08-25T11:58:38.198Z,30.39
2022-08-25T12:01:32.719Z,30.41
2022-08-25T12:04:21.070Z,30.57
2022-08-25T12:07:07.005Z,30.66
2022-08-25T12:09:55.513Z,30.75
2022-08-25T12:12:44.435Z,30.93
2022-08-25T12:15:31.689Z,31.22
2022-08-25T12:18:45.907Z,31.48
2022-08-25T12:21:31.468Z,31.72
2022-08-25T12:24:02.950Z,32.02
2022-08-25T12:26:46.006Z,32.10
2022-08-25T12:29:23.594Z,32.04
2022-08-25T12:32:04.588Z,31.99
2022-08-25T12:34:54.208Z,31.93
2022-08-25T12:37:25.347Z,31.80
2022-08-25T12:40:05.801Z,31.62
2022-08-25T12:42:44.119Z,31.70
2022-08-25T12:45:32.637Z,31.78
2022-08-25T12:48:25.338Z,31.74
2022-08-25T12:51:20.643Z,31.68
2022-08-25T12:54:10.627Z,31.71
2022-08-25T12:56:47.674Z,32.04
2022-08-25T12:59:35.486Z,32.41
2022-08-25T13:02:27.946Z,32.74
2022-08-25T13:05:35.556Z,33.05
2022-08-25T13:08:47.030Z,33.37
2022-08-25T13:11:30.269Z,33.71
2022-08-25T13:14:20.314Z,33.95
2022-08-25T13:16:55.279Z,34.10
2022-08-25T13:19:24.356Z,34.14
2022-08-25T13:21:54.658Z,34.28
2022-08-25T13:24:28.191Z,34.22
2022-08-25T13:26:59.465Z,34.13
2022-08-25T13:29:35.079Z,33.95
2022-08-25T13:32:14.385Z,33.82
2022-08-25T13:34:44.155Z,33.99
2022-08-25T13:37:30.193Z,34.18
2022-08-25T13:40:11.201Z,34.40
2022-08-25T13:42:42.582Z,34.53
2022-08-25T13:45:19.615Z,34.51
2022-08-25T13:47:49.460Z,34.50
2022-08-25T13:50:27.374Z,34.41
2022-08-25T13:52:59.590Z,34.38
2022-08-25T13:55:50.782Z,34.56
2022-08-25T13:58:24.882Z,34.72
2022-08-25T14:01:32.288Z,34.91
2022-08-25T14:04:35.399Z,35.12
2022-08-25T14:07:07.433Z,35.28
2022-08-25T14:09:49.896Z,35.26
2022-08-25T14:12:31.732Z,35.18
2022-08-25T14:15:17.865Z,35.14
2022-08-25T14:18:00.824Z,35.16
2022-08-25T14:20:31.829Z,35.14
2022-08-25T14:23:05.834Z,35.06
2022-08-25T14:25:40.442Z,35.05
2022-08-25T14:28:15.449Z,35.04
2022-08-25T14:30:51.911Z,35.22
2022-08-25T14:33:28.159Z,35.33
2022-08-25T14:35:59.020Z,35.47
2022-08-25T14:38:27.134Z,35.65
2022-08-25T14:40:59.365Z,35.83
2022-08-25T14:43:32.023Z,35.91
2022-08-25T14:46:08.060Z,35.90
2022-08-25T14:48:42.291Z,35.82
2022-08-25T14:51:12.063Z,35.67
2022-08-25T14:53:41.083Z,35.40
2022-08-25T14:56:10.241Z,35.20
2022-08-25T14:58:51.073Z,35.12
2022-08-25T15:01:28.938Z,35.09
2022-08-25T15:04:04.878Z,35.19
2022-08-25T15:06:35.713Z,35.33
2022-08-25T15:09:11.015Z,35.54
2022-08-25T15:11:45.611Z,35.71
2022-08-25T15:14:15.799Z,35.75
2022-08-25T15:16:50.931Z,35.87
2022-08-25T15:19:23.479Z,35.98
2022-08-25T15:21:52.136Z,36.08
2022-08-25T15:24:22.909Z,36.25
2022-08-25T15:26:58.690Z,36.36
2022-08-25T15:29:30.165Z,36.44
2022-08-25T15:31:59.785Z,36.64
2022-08-25T15:34:42.304Z,36.71
2022-08-25T15:37:13.090Z,36.59
2022-08-25T15:39:43.194Z,36.66
2022-08-25T15:42:14.160Z,36.74
2022-08-25T15:44:43.280Z,36.75
2022-08-25T15:47:22.953Z,36.62
2022-08-25T15:49:54.556Z,36.51
2022-08-25T15:52:22.495Z,36.34
2022-08-25T15:54:50.504Z,36.24
2022-08-25T15:57:24.490Z,36.19
2022-08-25T15:59:53.330Z,36.07
2022-08-25T16:02:22.223Z,36.03
2022-08-25T16:04:51.550Z,35.97
2022-08-25T16:07:20.837Z,36.04
2022-08-25T16:09:50.568Z,36.11
2022-08-25T16:12:18.842Z,36.04
2022-08-25T16:14:49.198Z,35.92
2022-08-25T16:17:20.175Z,35.96
2022-08-25T16:19:48.338Z,35.87
2022-08-25T16:22:16.781Z,35.87
2022-08-25T16:24:45.303Z,36.06
2022-08-25T16:27:14.192Z,36.18
2022-08-25T16:29:44.481Z,36.19
2022-08-25T16:32:14.087Z,36.00
2022-08-25T16:34:44.430Z,35.83
2022-08-25T16:37:13.634Z,35.70
2022-08-25T16:39:45.397Z,35.54
2022-08-25T16:42:13.578Z,35.34
2022-08-25T16:44:41.443Z,35.07
2022-08-25T16:47:09.670Z,34.90
2022-08-25T16:49:42.567Z,34.75
2022-08-25T16:52:31.117Z,34.68
2022-08-25T16:55:15.257Z,34.55
2022-08-25T16:57:48.664Z,34.28
2022-08-25T17:00:21.983Z,34.05
2022-08-25T17:02:52.139Z,33.90
2022-08-25T17:05:20.259Z,33.74
2022-08-25T17:08:08.583Z,33.51
2022-08-25T17:10:39.498Z,33.21
2022-08-25T17:13:07.525Z,32.96
2022-08-25T17:15:38.823Z,32.72
2022-08-25T17:18:07.985Z,32.53
2022-08-25T17:20:39.736Z,32.32
2022-08-25T17:23:12.699Z,32.09
2022-08-25T17:25:43.233Z,31.89
2022-08-25T17:28:13.033Z,31.69
2022-08-25T17:30:41.726Z,31.44
2022-08-25T17:33:14.230Z,31.23
2022-08-25T17:35:51.425Z,31.01
2022-08-25T17:38:27.468Z,30.82
2022-08-25T17:40:59.494Z,30.65
2022-08-25T17:43:29.082Z,30.48
2022-08-25T17:45:57.720Z,30.31
2022-08-25T17:48:26.930Z,30.07
2022-08-25T17:50:56.210Z,29.88
2022-08-25T17:53:24.562Z,29.74
2022-08-25T17:56:01.614Z,29.56
2022-08-25T17:58:30.262Z,29.35
2022-08-25T18:00:59.083Z,29.10
2022-08-25T18:03:27.778Z,28.87
2022-08-25T18:05:57.455Z,28.64
2022-08-25T18:08:32.207Z,28.49
2022-08-25T18:11:05.004Z,28.34
2022-08-25T18:13:33.371Z,28.23
2022-08-25T18:16:01.743Z,28.13
2022-08-25T18:18:30.982Z,27.99
2022-08-25T18:20:58.660Z,27.86
2022-08-25T18:23:27.683Z,27.75
2022-08-25T18:26:00.833Z,27.65
2022-08-25T18:28:31.021Z,27.57
2022-08-25T18:30:58.935Z,27.47
2022-08-25T18:33:29.972Z,27.37
2022-08-25T18:35:58.289Z,27.28
2022-08-25T18:38:45.060Z,27.17
2022-08-25T18:41:14.007Z,27.07
2022-08-25T18:43:42.268Z,27.01
2022-08-25T18:46:11.147Z,26.93
2022-08-25T18:48:38.848Z,26.86
2022-08-25T18:51:10.483Z,26.80
2022-08-25T18:53:50.439Z,26.72
2022-08-25T18:56:19.477Z,26.65
2022-08-25T18:58:47.989Z,26.60
2022-08-25T19:01:16.947Z,26.52
2022-08-25T19:03:46.562Z,26.42
2022-08-25T19:06:14.733Z,26.30
2022-08-25T19:08:43.689Z,26.18
2022-08-25T19:11:12.312Z,26.05
2022-08-25T19:13:40.700Z,25.94
2022-08-25T19:16:17.770Z,25.87
2022-08-25T19:18:52.136Z,25.84
2022-08-25T19:21:24.463Z,25.78
2022-08-25T19:23:53.273Z,25.74
2022-08-25T19:26:22.385Z,25.70
2022-08-25T19:28:52.810Z,25.63
2022-08-25T19:31:22.747Z,25.59
2022-08-25T19:33:52.823Z,25.54
2022-08-25T19:36:31.300Z,25.46
2022-08-25T19:39:01.287Z,25.40
2022-08-25T19:41:31.462Z,25.33
2022-08-25T19:44:00.464Z,25.27
2022-08-25T19:46:35.293Z,25.22
2022-08-25T19:49:09.221Z,25.17
2022-08-25T19:51:39.789Z,25.13
2022-08-25T19:54:10.216Z,25.10
2022-08-25T19:56:43.820Z,25.07
2022-08-25T19:59:26.038Z,25.02
2022-08-25T20:01:54.300Z,24.98
2022-08-25T20:04:24.533Z,24.94
2022-08-25T20:06:55.464Z,24.89
2022-08-25T20:09:39.383Z,24.87
2022-08-25T20:12:10.882Z,24.84
2022-08-25T20:14:39.750Z,24.78
2022-08-25T20:17:24.041Z,24.75
2022-08-25T20:19:56.537Z,24.66
2022-08-25T20:22:27.246Z,24.59
2022-08-25T20:24:58.519Z,24.48
2022-08-25T20:27:32.952Z,24.37
2022-08-25T20:30:04.001Z,24.27
2022-08-25T20:32:33.858Z,24.19
2022-08-25T20:35:02.686Z,24.10
2022-08-25T20:37:31.569Z,24.04
2022-08-25T20:40:02.199Z,23.95
2022-08-25T20:42:30.415Z,23.85
2022-08-25T20:44:59.628Z,23.76
2022-08-25T20:47:30.254Z,23.65
2022-08-25T20:50:02.235Z,23.54
2022-08-25T20:52:34.675Z,23.44
2022-08-25T20:55:05.012Z,23.37
2022-08-25T20:57:33.436Z,23.30
2022-08-25T21:00:03.078Z,23.26
2022-08-25T21:02:33.037Z,23.20
2022-08-25T21:05:04.808Z,23.14
2022-08-25T21:07:35.732Z,23.10
2022-08-25T21:10:14.352Z,23.06
2022-08-25T21:12:45.220Z,23.03
2022-08-25T21:15:18.041Z,22.98
2022-08-25T21:17:51.376Z,22.87
2022-08-25T21:20:23.748Z,22.77
2022-08-25T21:22:53.443Z,22.69
2022-08-25T21:25:22.397Z,22.62
2022-08-25T21:27:50.887Z,22.59
2022-08-25T21:30:19.118Z,22.52
2022-08-25T21:32:53.544Z,22.46
2022-08-25T21:35:23.843Z,22.43
2022-08-25T21:37:53.809Z,22.40
2022-08-25T21:40:23.219Z,22.37
2022-08-25T21:42:52.655Z,22.34
2022-08-25T21:45:21.713Z,22.31
2022-08-25T21:47:52.555Z,22.29
2022-08-25T21:50:20.894Z,22.30
2022-08-25T21:52:54.511Z,22.30
2022-08-25T21:55:23.678Z,22.29
2022-08-25T21:57:53.206Z,22.28
2022-08-25T22:00:24.838Z,22.24
2022-08-25T22:02:53.661Z,22.20
2022-08-25T22:05:22.476Z,22.18
2022-08-25T22:07:53.093Z,22.18
2022-08-25T22:10:24.721Z,22.16
2022-08-25T22:12:53.276Z,22.15
2022-08-25T22:15:21.273Z,22.13
2022-08-25T22:17:49.549Z,22.10
2022-08-25T22:20:18.923Z,22.05
2022-08-25T22:22:48.106Z,22.02
2022-08-25T22:25:16.272Z,21.99
2022-08-25T22:27:45.505Z,21.98
2022-08-25T22:30:14.872Z,21.99
2022-08-25T22:32:43.352Z,21.98
2022-08-25T22:35:14.240Z,21.98
2022-08-25T22:37:43.342Z,21.99
2022-08-25T22:40:13.029Z,21.99
2022-08-25T22:42:47.805Z,21.97
2022-08-25T22:45:17.155Z,21.95
2022-08-25T22:47:45.563Z,21.93
2022-08-25T22:50:18.123Z,21.90
2022-08-25T22:52:48.111Z,21.86
2022-08-25T22:55:17.039Z,21.86
2022-08-25T22:57:46.239Z,21.82
2022-08-25T23:00:17.546Z,21.79
2022-08-25T23:02:47.102Z,21.79
2022-08-25T23:05:15.483Z,21.78
2022-08-25T23:07:43.620Z,21.74
2022-08-25T23:10:12.596Z,21.68
2022-08-25T23:12:45.330Z,21.65
2022-08-25T23:15:16.551Z,21.61
2022-08-25T23:17:44.943Z,21.60
2022-08-25T23:20:32.699Z,21.58
2022-08-25T23:23:01.648Z,21.58
2022-08-25T23:25:30.539Z,21.57
2022-08-25T23:27:59.703Z,21.54
2022-08-25T23:30:30.899Z,21.52
2022-08-25T23:32:59.542Z,21.50
2022-08-25T23:35:45.470Z,21.50
2022-08-25T23:38:13.894Z,21.49
2022-08-25T23:40:44.367Z,21.45
2022-08-25T23:43:13.830Z,21.43
2022-08-25T23:45:42.014Z,21.38
2022-08-25T23:48:10.242Z,21.34
2022-08-25T23:50:47.255Z,21.32
2022-08-25T23:53:23.778Z,21.30
2022-08-25T23:55:56.266Z,21.28
2022-08-25T23:58:25.910Z,21.28
